Lane, OK (74555)

1:19 PM CDT on October 01, 2014 (GMT -0500)
Atoka Municipal | Change Station
CLOSE
Current Station
Airport
Location: Atoka,
Elevation: 591 ft
Nearby Weather Stations

Elev 591 ft 34.40 °N, 96.15 °W | Updated -901 second ago

Scattered Clouds
Scattered Clouds
86 °F
Feels Like 87 °F
N
7
Wind Variable Wind from South

Today
High -- | Low -- °F
--% Chance of Precip.
Yesterday
High -- | Low -- °F
Precip. -- in
7:19 AM 7:08 PM
Waxing Crescent, 50% visible
Pressure 29.88 in
Visibility 10.0 miles
Clouds Scattered Clouds 3800 ft
Scattered Clouds 4700 ft
Scattered Clouds 8500 ft
Heat Index 87 °F
Dew Point 64 °F
Humidity 48%
Rainfall 0.00 in
Snow Depth Not available.
UV 6 out of 12
Pollen 9.10 out of 12
Air Quality Not available.
Flu Activity Not available.
METAR KAQR 301835Z AUTO 17006KT 10SM SCT038 SCT047 SCT085 30/18 A2988 RMK AO2

More Conditions Fewer Conditions

Pressure 29.88 in
Visibility 10.0 miles
Clouds Scattered Clouds 3800 ft
Scattered Clouds 4700 ft
Scattered Clouds 8500 ft
Heat Index 87 °F
Dew Point 64 °F
Humidity 48%
Rainfall 0.00 in
Snow Depth Not available.
UV 6 out of 12
Pollen 9.10 out of 12
Air Quality Not available.
Flu Activity Not available.
METAR KAQR 301835Z AUTO 17006KT 10SM SCT038 SCT047 SCT085 30/18 A2988 RMK AO2

More Conditions Fewer Conditions

10-Day Weather Forecast

Almanac

Astronomy

Oct. 01, 2014 Rise Set
Actual Time 7:19 AM CDT 7:08 PM CDT
Civil Twilight 6:54 AM CDT 7:33 PM CDT
Nautical Twilight 6:24 AM CDT 8:02 PM CDT
Astronomical Twilight 5:55 AM CDT 8:31 PM CDT
Moon 2:10 PM CDT No Moon Set
Length of Visible Light 12h 39m
Length of Day
11h 49m
Tomorrow will be 2m 8s shorter.
Waxing Crescent, 50% of the Moon is Illuminated
Today
Waxing Crescent
Oct 1
First Quarter
Oct 8
Full
Oct 15
Last Quarter
Oct 23
New

Today's Extremes

State Highs State Lows

Community

WunderPhotos

Upload Photos

1,758,008 photos uploaded!

WunderBlogs® & News

By Dr. Jeff Masters
Director of Meteorology, Weather Underground
By Kari Strenfel
Meteorologist, Weather Underground
By Christopher C. Burt
Weather Historian, Weather Underground
October 1, 2014
October 1, 2014
October 1, 2014

Nearby

Snow Depth

Station Depth Elevation
No new snow has been reported.

Earthquake Activity

City Distance Mag. Time & Date
Spencer, Oklahoma 110 miles 3.0 5:12 PM CDT
2014-09-30
Perry, Oklahoma 139 miles 2.6 2:34 PM CDT
2014-09-30
Yale, Oklahoma 130 miles 2.6 11:29 AM CDT
2014-09-30
Perry, Oklahoma 149 miles 2.6 9:43 AM CDT
2014-09-30
Minimum magnitude displayed is 2.5.

Coastal Water Temperatures

Place Temperature
No Stations Reporting

Nearby Weather Stations